Fairfax, Vermont
Current Conditions -  °F | °C
As of 9:54 AM on Monday 22 Dec 2014 (Local Time) from KBTV Reporting Station
Haze Haze  
Wind Chill: -8°   Ceiling: 3500
Heat Index: -4°   Visibility: 4mi
Dew Point: -7°   Wind: 5mph
Humidity: 81%   Direction: 320°NW
Pressure: 30.39"   Gusts: NA
Location:  44.67°N, 73.01°W
Report Text: KBTV 221454Z 32004KT 4SM BR OVC035 M04/M07 A3039 RMK AO2 SLP297 T10441072 53004
Loading
Personal Weather Stations






























Interactive Weather Map New forecast layout! Learn more

10-Day Weather Forecast

Advertisements
Track Severe Weather on mobile